1862 NOT_NAMED (1862052S08080)


IBTrACS version v04r00. Visit IBTrACS website for data access.
Please direct all questions to the IBTrACS Q and A forum

Storm track - Intensity - Wind Radii - Intensity Data - Source Data - All data

Summary Information

Storm ID 1862052S08080
Start Feb 21 06Z
End Mar 1 06Z
ATCF IDs
Track status Best track data.

Storm track plot

Map of storm track

Intensity plots

No Intensity information for this storm


Radial wind information

No radial wind information for this storm


Position and Intensity Table

BASIN ISO_TIME_________ NATURE LAT LON
degrees north degrees east
SI 1862-02-21 06:00:00 NR -7.80 79.60
SI 09:00:00 NR -7.95 79.44
SI 12:00:00 NR -8.09 79.27
SI 15:00:00 NR -8.25 79.09
SI 18:00:00 NR -8.39 78.99
SI 21:00:00 NR -8.57 78.82
SI 1862-02-22 00:00:00 NR -8.77 78.61
SI 03:00:00 NR -8.98 78.37
SI 06:00:00 NR -9.20 78.10
SI 09:00:00 NR -9.43 77.81
SI 12:00:00 NR -9.66 77.51
SI 15:00:00 NR -9.92 77.20
SI 18:00:00 NR -10.19 76.88
SI 21:00:00 NR -10.49 76.55
SI 1862-02-23 00:00:00 NR -10.80 76.22
SI 03:00:00 NR -11.11 75.90
SI 06:00:00 NR -11.40 75.60
SI 09:00:00 NR -11.63 75.36
SI 12:00:00 NR -11.83 75.15
SI 15:00:00 NR -12.03 74.95
SI 18:00:00 NR -12.22 74.74
SI 21:00:00 NR -12.43 74.53
SI 1862-02-24 00:00:00 NR -12.65 74.30
SI 03:00:00 NR -12.88 74.06
SI 06:00:00 NR -13.15 73.80
SI 09:00:00 NR -13.47 73.47
SI 12:00:00 NR -13.83 73.12
SI 15:00:00 NR -14.20 72.76
SI 18:00:00 NR -14.58 72.43
SI 21:00:00 NR -14.97 72.12
SI 1862-02-25 00:00:00 NR -15.35 71.84
SI 03:00:00 NR -15.71 71.62
SI 06:00:00 NR -16.05 71.45
SI 09:00:00 NR -16.32 71.35
SI 12:00:00 NR -16.57 71.32
SI 15:00:00 NR -16.79 71.32
SI 18:00:00 NR -17.00 71.36
SI 21:00:00 NR -17.20 71.40
SI 1862-02-26 00:00:00 NR -17.40 71.46
SI 03:00:00 NR -17.61 71.54
SI 06:00:00 NR -17.85 71.65
SI 09:00:00 NR -18.14 71.77
SI 12:00:00 NR -18.45 71.91
SI 15:00:00 NR -18.77 72.06
SI 18:00:00 NR -19.08 72.23
SI 21:00:00 NR -19.36 72.36
SI 1862-02-27 00:00:00 NR -19.63 72.50
SI 03:00:00 NR -19.91 72.68
SI 06:00:00 NR -20.20 72.90
SI 09:00:00 NR -20.54 73.22
SI 12:00:00 NR -20.90 73.59
SI 15:00:00 NR -21.27 73.99
SI 18:00:00 NR -21.64 74.39
SI 21:00:00 NR -21.99 74.75
SI 1862-02-28 00:00:00 NR -22.32 75.07
SI 03:00:00 NR -22.63 75.36
SI 06:00:00 NR -22.92 75.64
SI 09:00:00 NR -23.16 75.89
SI 12:00:00 NR -23.38 76.14
SI 15:00:00 NR -23.58 76.36
SI 18:00:00 NR -23.75 76.56
SI 21:00:00 NR -23.90 76.74
SI 1862-03-01 00:00:00 NR -24.04 76.90
SI 03:00:00 NR -24.17 77.05
SI 06:00:00 NR -24.30 77.20

Source Information

Agency Information
USA
TOKYO
CMA
HKO
NEWDELHI
REUNION WMO-Best-Tracks.txt:Line=442:xxxx862064
BOM
NADI
WELLINGTON
DS824
TD9636 cons_worldwide_trop_cyclone_18710101-19891231-005:Line=593
TD9635
NEUMANN
MLC

All available IBTrACS Data

SEASON BASIN SUBBASIN ISO_TIME_________ NATURE LAT LON WMO AGENCY DIST2LAND LANDFALL IFLAG USA SSHS REUNION LAT REUNION LON REUNION TYPE REUNION TNUM TD9636 LAT TD9636 LON TD9636 STAGE STORM SPEED STORM DIR
Year degrees north degrees east km km 1 degrees north degrees east 1 degrees north degrees east kts degrees
1862 SI MM 1862-02-21 06:00:00 NR -7.80 79.60 reunion 1539 1539 _____O________ -1 -7.80 79.60 99 9.90 4 229
1862 SI MM 09:00:00 NR -7.95 79.44 1552 1552 _____P________ -1 -7.95 79.44 99 4 228
1862 SI MM 12:00:00 NR -8.09 79.27 1575 1575 _____P________ -1 -8.09 79.27 99 5 228
1862 SI MM 15:00:00 NR -8.25 79.09 1588 1588 _____P________ -1 -8.25 79.09 99 4 223
1862 SI MM 18:00:00 NR -8.39 78.99 1612 1612 _____P____O___ -1 -8.41 78.91 99 -8.30 79.30 7 4 221
1862 SI MM 21:00:00 NR -8.57 78.82 1637 1637 _____P____P___ -1 -8.58 78.71 99 -8.53 79.03 7 5 225
1862 SI MM 1862-02-22 00:00:00 NR -8.77 78.61 1662 1662 _____P____P___ -1 -8.77 78.49 99 -8.76 78.76 7 6 227
1862 SI MM 03:00:00 NR -8.98 78.37 1687 1687 _____P____P___ -1 -8.98 78.26 99 -8.98 78.48 7 7 229
1862 SI MM 06:00:00 NR -9.20 78.10 reunion 1714 1714 _____O____O___ -1 -9.20 78.00 99 9.90 -9.20 78.20 7 7 231
1862 SI MM 09:00:00 NR -9.43 77.81 1742 1742 _____P____P___ -1 -9.45 77.72 99 -9.41 77.91 7 7 231
1862 SI MM 12:00:00 NR -9.66 77.51 1781 1781 _____P____P___ -1 -9.71 77.41 99 -9.62 77.61 7 8 231
1862 SI MM 15:00:00 NR -9.92 77.20 1810 1810 _____P____P___ -1 -9.99 77.09 99 -9.85 77.31 7 8 230
1862 SI MM 18:00:00 NR -10.19 76.88 1850 1850 _____P____O___ -1 -10.27 76.77 99 -10.10 77.00 7 9 228
1862 SI MM 21:00:00 NR -10.49 76.55 1892 1892 _____P____P___ -1 -10.56 76.44 99 -10.42 76.66 7 9 227
1862 SI MM 1862-02-23 00:00:00 NR -10.80 76.22 1933 1933 _____P____P___ -1 -10.85 76.11 99 -10.76 76.32 7 9 226
1862 SI MM 03:00:00 NR -11.11 75.90 1974 1974 _____P____P___ -1 -11.13 75.80 99 -11.09 75.99 7 9 225
1862 SI MM 06:00:00 NR -11.40 75.60 reunion 2015 2015 _____O____O___ -1 -11.40 75.50 99 9.90 -11.40 75.70 7 7 225
1862 SI MM 09:00:00 NR -11.63 75.36 2043 2043 _____P____P___ -1 -11.62 75.25 99 -11.63 75.47 7 6 226
1862 SI MM 12:00:00 NR -11.83 75.15 2074 2056 _____P____P___ -1 -11.83 75.02 99 -11.83 75.28 7 6 225
1862 SI MM 15:00:00 NR -12.03 74.95 2047 2026 _____P____P___ -1 -12.04 74.80 99 -12.01 75.09 7 6 225
1862 SI MM 18:00:00 NR -12.22 74.74 2017 1987 _____P____O___ -1 -12.25 74.59 99 -12.20 74.90 7 6 226
1862 SI MM 21:00:00 NR -12.43 74.53 1987 1957 _____P____P___ -1 -12.46 74.38 99 -12.40 74.68 7 6 226
1862 SI MM 1862-02-24 00:00:00 NR -12.65 74.30 1957 1922 _____P____P___ -1 -12.69 74.16 99 -12.60 74.44 7 6 225
1862 SI MM 03:00:00 NR -12.88 74.06 1922 1883 _____P____P___ -1 -12.93 73.94 99 -12.83 74.19 7 7 224
1862 SI MM 06:00:00 NR -13.15 73.80 reunion 1883 1834 _____O____O___ -1 -13.20 73.70 99 9.90 -13.10 73.90 7 8 224
1862 SI MM 09:00:00 NR -13.47 73.47 1834 1780 _____P____P___ -1 -13.53 73.38 99 -13.41 73.56 7 10 225
1862 SI MM 12:00:00 NR -13.83 73.12 1780 1732 _____P____P___ -1 -13.90 73.04 99 -13.76 73.19 7 10 223
1862 SI MM 15:00:00 NR -14.20 72.76 1732 1674 _____P____P___ -1 -14.27 72.70 99 -14.12 72.83 7 10 222
1862 SI MM 18:00:00 NR -14.58 72.43 1674 1630 _____P____O___ -1 -14.66 72.35 99 -14.50 72.50 7 10 219
1862 SI MM 21:00:00 NR -14.97 72.12 1626 1593 _____P____P___ -1 -15.04 72.03 99 -14.89 72.20 7 10 216
1862 SI MM 1862-02-25 00:00:00 NR -15.35 71.84 1583 1546 _____P____P___ -1 -15.42 71.74 99 -15.28 71.95 7 9 213
1862 SI MM 03:00:00 NR -15.71 71.62 1546 1524 _____P____P___ -1 -15.77 71.49 99 -15.66 71.74 7 8 208
1862 SI MM 06:00:00 NR -16.05 71.45 reunion 1524 1503 _____O____O___ -1 -16.10 71.30 99 9.90 -16.00 71.60 7 7 203
1862 SI MM 09:00:00 NR -16.32 71.35 1503 1482 _____P____P___ -1 -16.36 71.18 99 -16.29 71.53 7 5 194
1862 SI MM 12:00:00 NR -16.57 71.32 1482 1475 _____P____P___ -1 -16.59 71.12 99 -16.54 71.52 7 5 184
1862 SI MM 15:00:00 NR -16.79 71.32 1475 1472 _____P____P___ -1 -16.80 71.10 99 -16.78 71.55 7 4 175
1862 SI MM 18:00:00 NR -17.00 71.36 1479 1472 _____P____O___ -1 -16.99 71.12 99 -17.00 71.60 7 4 170
1862 SI MM 21:00:00 NR -17.20 71.40 1472 1466 _____P____P___ -1 -17.19 71.18 99 -17.21 71.62 7 4 167
1862 SI MM 1862-02-26 00:00:00 NR -17.40 71.46 1477 1471 _____P____P___ -1 -17.38 71.26 99 -17.42 71.65 7 4 162
1862 SI MM 03:00:00 NR -17.61 71.54 1471 1471 _____P____P___ -1 -17.58 71.37 99 -17.64 71.71 7 5 158
1862 SI MM 06:00:00 NR -17.85 71.65 reunion 1487 1479 _____O____O___ -1 -17.80 71.50 99 9.90 -17.90 71.80 7 6 158
1862 SI MM 09:00:00 NR -18.14 71.77 1490 1485 _____P____P___ -1 -18.05 71.58 99 -18.23 71.95 7 7 158
1862 SI MM 12:00:00 NR -18.45 71.91 1491 1491 _____P____P___ -1 -18.31 71.69 99 -18.59 72.13 7 7 156
1862 SI MM 15:00:00 NR -18.77 72.06 1507 1505 _____P____P___ -1 -18.58 71.81 99 -18.96 72.32 7 7 154
1862 SI MM 18:00:00 NR -19.08 72.23 1512 1512 _____P____O___ -1 -18.87 71.96 99 -19.30 72.50 7 7 155
1862 SI MM 21:00:00 NR -19.36 72.36 1529 1528 _____P____P___ -1 -19.16 72.13 99 -19.56 72.60 7 6 155
1862 SI MM 1862-02-27 00:00:00 NR -19.63 72.50 1537 1536 _____P____P___ -1 -19.46 72.33 99 -19.80 72.68 7 6 152
1862 SI MM 03:00:00 NR -19.91 72.68 1555 1555 _____P____P___ -1 -19.78 72.55 99 -20.04 72.81 7 7 147
1862 SI MM 06:00:00 NR -20.20 72.90 reunion 1574 1574 _____O____O___ -1 -20.10 72.80 99 9.90 -20.30 73.00 7 8 141
1862 SI MM 09:00:00 NR -20.54 73.22 1604 1604 _____P____P___ -1 -20.45 73.10 99 -20.63 73.34 7 10 137
1862 SI MM 12:00:00 NR -20.90 73.59 1645 1645 _____P____P___ -1 -20.82 73.44 99 -20.98 73.75 7 10 135
1862 SI MM 15:00:00 NR -21.27 73.99 1686 1686 _____P____P___ -1 -21.20 73.80 99 -21.34 74.18 7 10 135
1862 SI MM 18:00:00 NR -21.64 74.39 1728 1728 _____P____O___ -1 -21.57 74.17 99 -21.70 74.60 7 10 135
1862 SI MM 21:00:00 NR -21.99 74.75 1771 1771 _____P____P___ -1 -21.93 74.55 99 -22.04 74.96 7 9 137
1862 SI MM 1862-02-28 00:00:00 NR -22.32 75.07 1804 1804 _____P____P___ -1 -22.28 74.92 99 -22.37 75.27 7 9 139
1862 SI MM 03:00:00 NR -22.63 75.36 1837 1837 _____P____P___ -1 -22.61 75.27 99 -22.69 75.54 7 8 139
1862 SI MM 06:00:00 NR -22.92 75.64 reunion 1861 1861 _____O____O___ -1 -22.90 75.60 99 9.90 -23.00 75.80 7 7 137
1862 SI MM 09:00:00 NR -23.16 75.89 1895 1895 _____P________ -1 -23.16 75.89 99 7 7 135
1862 SI MM 12:00:00 NR -23.38 76.14 1918 1918 _____P________ -1 -23.38 76.14 99 7 6 134
1862 SI MM 15:00:00 NR -23.58 76.36 1951 1951 _____P________ -1 -23.58 76.36 99 7 5 134
1862 SI MM 18:00:00 NR -23.75 76.56 1974 1974 _____P________ -1 -23.75 76.56 99 5 134
1862 SI MM 21:00:00 NR -23.90 76.74 1986 1986 _____P________ -1 -23.90 76.74 99 4 133
1862 SI MM 1862-03-01 00:00:00 NR -24.04 76.90 2007 2007 _____P________ -1 -24.04 76.90 99 4 133
1862 SI MM 03:00:00 NR -24.17 77.05 2030 2030 _____P________ -1 -24.17 77.05 99 4 133
1862 SI MM 06:00:00 NR -24.30 77.20 reunion 2042 _____O________ -1 -24.30 77.20 99 9.90 4 134